createdAt,value
2023-04-16T00:02:20.313Z,8.78
2023-04-16T00:07:23.524Z,8.78
2023-04-16T00:12:28.081Z,8.84
2023-04-16T00:17:31.231Z,8.83
2023-04-16T00:22:34.430Z,8.91
2023-04-16T00:27:39.066Z,8.84
2023-04-16T00:32:42.333Z,8.79
2023-04-16T00:37:45.729Z,8.88
2023-04-16T00:42:50.603Z,8.75
2023-04-16T00:47:53.969Z,8.83
2023-04-16T00:52:58.170Z,8.75
2023-04-16T00:58:02.869Z,8.72
2023-04-16T01:03:06.790Z,8.81
2023-04-16T01:08:17.170Z,8.77
2023-04-16T01:13:21.791Z,8.84
2023-04-16T01:18:25.321Z,8.75
2023-04-16T01:23:29.879Z,8.85
2023-04-16T01:28:33.556Z,8.88
2023-04-16T01:33:36.716Z,8.88
2023-04-16T01:38:41.471Z,8.99
2023-04-16T01:43:44.644Z,8.74
2023-04-16T01:48:48.512Z,8.83
2023-04-16T01:53:53.006Z,8.90
2023-04-16T01:58:56.187Z,8.83
2023-04-16T02:04:01.152Z,8.74
2023-04-16T02:09:06.036Z,8.79
2023-04-16T02:14:09.832Z,8.76
2023-04-16T02:19:13.168Z,8.84
2023-04-16T02:24:19.286Z,8.81
2023-04-16T02:29:22.635Z,8.69
2023-04-16T02:34:34.598Z,8.73
2023-04-16T02:39:39.502Z,8.57
2023-04-16T02:44:42.905Z,8.60
2023-04-16T02:49:46.436Z,8.75
2023-04-16T02:54:51.213Z,8.57
2023-04-16T02:59:54.518Z,8.65
2023-04-16T03:04:57.929Z,8.75
2023-04-16T03:10:02.608Z,8.71
2023-04-16T03:15:06.605Z,8.58
2023-04-16T03:20:11.510Z,8.73
2023-04-16T03:25:16.078Z,8.82
2023-04-16T03:30:19.245Z,8.64
2023-04-16T03:35:22.630Z,8.63
2023-04-16T03:40:27.384Z,8.76
2023-04-16T03:45:31.304Z,8.70
2023-04-16T03:50:34.821Z,8.72
2023-04-16T03:55:42.235Z,8.54
2023-04-16T04:00:46.818Z,8.75
2023-04-16T04:05:51.848Z,8.72
2023-04-16T04:11:02.841Z,8.77
2023-04-16T04:16:07.793Z,8.62
2023-04-16T04:21:11.438Z,8.75
2023-04-16T04:26:16.523Z,8.72
2023-04-16T04:31:19.982Z,8.67
2023-04-16T04:36:23.669Z,8.62
2023-04-16T04:41:29.384Z,8.65
2023-04-16T04:46:32.667Z,8.47
2023-04-16T04:51:36.217Z,8.71
2023-04-16T04:56:41.393Z,8.47
2023-04-16T05:01:44.752Z,8.55
2023-04-16T05:06:47.931Z,8.79
2023-04-16T05:11:52.608Z,8.70
2023-04-16T05:16:56.502Z,8.85
2023-04-16T05:21:59.734Z,8.73
2023-04-16T05:27:04.539Z,8.59
2023-04-16T05:32:08.515Z,8.55
2023-04-16T05:37:12.135Z,8.62
2023-04-16T05:42:17.236Z,8.38
2023-04-16T05:47:21.494Z,8.50
2023-04-16T05:52:25.122Z,8.23
2023-04-16T05:57:30.170Z,8.43
2023-04-16T06:02:33.455Z,8.34
2023-04-16T06:07:36.871Z,8.57
2023-04-16T06:12:41.732Z,8.56
2023-04-16T06:17:45.847Z,8.32
2023-04-16T06:22:49.086Z,8.60
2023-04-16T06:27:53.826Z,8.36
2023-04-16T06:32:57.047Z,8.34
2023-04-16T06:38:00.245Z,8.62
2023-04-16T06:43:04.942Z,8.71
2023-04-16T06:48:08.247Z,8.35
2023-04-16T06:53:11.390Z,8.44
2023-04-16T06:58:16.219Z,8.28
2023-04-16T07:03:20.556Z,8.50
2023-04-16T07:08:24.727Z,8.61
2023-04-16T07:13:29.669Z,8.47
2023-04-16T07:18:33.032Z,8.60
2023-04-16T07:23:36.640Z,8.38
2023-04-16T07:28:42.084Z,8.44
2023-04-16T07:33:45.520Z,8.48
2023-04-16T07:38:49.600Z,8.09
2023-04-16T07:43:55.285Z,8.44
2023-04-16T07:48:58.505Z,8.61
2023-04-16T07:54:02.130Z,8.53
2023-04-16T07:59:21.181Z,8.68
2023-04-16T08:04:26.515Z,8.76
2023-04-16T08:09:30.196Z,8.53
2023-04-16T08:14:34.728Z,8.98
2023-04-16T08:19:37.850Z,8.59
2023-04-16T08:24:42.090Z,8.55
2023-04-16T08:29:46.978Z,8.82
2023-04-16T08:34:51.385Z,8.58
2023-04-16T08:39:55.518Z,8.42
2023-04-16T08:45:10.269Z,8.53
2023-04-16T08:50:15.664Z,8.64
2023-04-16T08:55:23.451Z,8.52
2023-04-16T09:00:29.648Z,8.63
2023-04-16T09:05:34.394Z,8.68
2023-04-16T09:10:37.620Z,8.65
2023-04-16T09:15:42.760Z,8.74
2023-04-16T09:20:46.093Z,9.04
2023-04-16T09:25:49.313Z,8.84
2023-04-16T09:31:09.404Z,8.70
2023-04-16T09:36:12.802Z,8.98
2023-04-16T09:41:17.416Z,8.66
2023-04-16T09:46:22.394Z,8.80
2023-04-16T09:51:26.976Z,8.78
2023-04-16T09:56:30.591Z,8.84
2023-04-16T10:01:35.338Z,8.88
2023-04-16T10:06:38.605Z,9.08
2023-04-16T10:11:42.986Z,9.06
2023-04-16T10:16:47.954Z,8.71
2023-04-16T10:21:51.300Z,8.96
2023-04-16T10:26:54.753Z,9.06
2023-04-16T10:32:00.699Z,9.15
2023-04-16T10:37:04.203Z,9.15
2023-04-16T10:42:12.768Z,9.02
2023-04-16T10:47:18.847Z,9.15
2023-04-16T10:52:24.945Z,8.64
2023-04-16T10:57:30.456Z,8.86
2023-04-16T11:02:35.842Z,8.65
2023-04-16T11:07:49.686Z,8.79
2023-04-16T11:12:55.823Z,9.01
2023-04-16T11:18:00.986Z,9.15
2023-04-16T11:23:05.063Z,9.05
2023-04-16T11:28:08.762Z,9.10
2023-04-16T11:33:14.543Z,9.03
2023-04-16T11:38:19.808Z,9.22
2023-04-16T11:43:27.810Z,9.29
2023-04-16T11:48:51.546Z,9.19
2023-04-16T11:53:56.419Z,9.29
2023-04-16T11:59:10.279Z,9.10
2023-04-16T12:04:17.413Z,9.15
2023-04-16T12:09:27.107Z,9.13
2023-04-16T12:14:33.441Z,8.92
2023-04-16T12:19:52.342Z,8.87
2023-04-16T12:25:00.516Z,8.83
2023-04-16T12:30:08.966Z,8.90
2023-04-16T12:35:16.364Z,8.90
2023-04-16T12:40:25.348Z,8.64
2023-04-16T12:45:28.783Z,8.43
2023-04-16T12:50:33.962Z,8.63
2023-04-16T12:55:38.507Z,8.85
2023-04-16T13:00:42.351Z,8.74
2023-04-16T13:05:48.147Z,8.53
2023-04-16T13:10:51.626Z,8.62
2023-04-16T13:15:55.130Z,8.63
2023-04-16T13:21:00.682Z,8.72
2023-04-16T13:26:04.271Z,8.82
2023-04-16T13:31:07.824Z,8.67
2023-04-16T13:36:12.838Z,8.69
2023-04-16T13:41:16.591Z,8.65
2023-04-16T13:46:21.368Z,8.70
2023-04-16T13:51:27.262Z,8.76
2023-04-16T13:56:30.960Z,8.85
2023-04-16T14:01:34.884Z,8.76
2023-04-16T14:06:40.773Z,8.79
2023-04-16T14:11:45.268Z,8.90
2023-04-16T14:16:49.205Z,8.96
2023-04-16T14:21:54.413Z,9.02
2023-04-16T14:26:58.773Z,8.97
2023-04-16T14:32:02.267Z,9.11
2023-04-16T14:37:07.034Z,9.00
2023-04-16T14:42:10.422Z,8.87
2023-04-16T14:47:14.251Z,8.77
2023-04-16T14:52:19.273Z,8.75
2023-04-16T14:57:22.694Z,8.65
2023-04-16T15:02:26.455Z,8.61
2023-04-16T15:07:31.612Z,8.70
2023-04-16T15:12:34.718Z,8.65
2023-04-16T15:17:38.110Z,8.70
2023-04-16T15:22:42.869Z,8.59
2023-04-16T15:27:46.275Z,8.60
2023-04-16T15:32:49.634Z,8.58
2023-04-16T15:37:55.383Z,8.70
2023-04-16T15:42:58.517Z,8.78
2023-04-16T15:48:02.231Z,8.78
2023-04-16T15:53:07.313Z,8.85
2023-04-16T15:58:12.938Z,8.72
2023-04-16T16:03:16.922Z,8.87
2023-04-16T16:08:21.779Z,8.66
2023-04-16T16:13:25.860Z,8.63
2023-04-16T16:18:29.513Z,8.72
2023-04-16T16:23:33.938Z,8.91
2023-04-16T16:28:38.140Z,8.81
2023-04-16T16:33:41.597Z,8.82
2023-04-16T16:38:49.470Z,8.94
2023-04-16T16:43:55.842Z,8.77
2023-04-16T16:48:59.216Z,9.00
2023-04-16T16:54:03.663Z,8.99
2023-04-16T16:59:06.987Z,9.05
2023-04-16T17:04:11.532Z,9.06
2023-04-16T17:09:34.819Z,9.01
2023-04-16T17:14:37.968Z,8.86
2023-04-16T17:19:41.141Z,8.84
2023-04-16T17:24:48.525Z,8.92
2023-04-16T17:29:52.944Z,8.93
2023-04-16T17:35:00.168Z,8.80
2023-04-16T17:40:08.094Z,8.78
2023-04-16T17:45:17.154Z,8.85
2023-04-16T17:50:20.572Z,8.81
2023-04-16T17:55:27.125Z,8.72
2023-04-16T18:00:30.868Z,8.69
2023-04-16T18:05:34.245Z,8.68
2023-04-16T18:10:39.731Z,8.77
2023-04-16T18:15:45.348Z,8.51
2023-04-16T18:20:49.492Z,8.19
2023-04-16T18:25:54.623Z,7.96
2023-04-16T18:30:59.087Z,7.99
2023-04-16T18:36:06.764Z,8.09
2023-04-16T18:41:18.525Z,8.33
2023-04-16T18:46:27.718Z,8.41
2023-04-16T18:51:33.997Z,8.28
2023-04-16T18:56:38.946Z,8.26
2023-04-16T19:01:47.101Z,8.39
2023-04-16T19:06:51.632Z,8.35
2023-04-16T19:12:03.121Z,8.37
2023-04-16T19:17:12.431Z,8.37
2023-04-16T19:22:16.010Z,8.35
2023-04-16T19:27:21.586Z,8.09
2023-04-16T19:32:26.025Z,8.14
2023-04-16T19:37:29.880Z,8.12
2023-04-16T19:42:39.168Z,8.14
2023-04-16T19:47:43.680Z,8.34
2023-04-16T19:52:51.229Z,8.38
2023-04-16T19:58:05.564Z,8.50
2023-04-16T20:03:11.018Z,8.43
2023-04-16T20:08:14.280Z,8.31
2023-04-16T20:13:18.924Z,8.17
2023-04-16T20:18:22.236Z,8.25
2023-04-16T20:23:25.749Z,8.14
2023-04-16T20:28:30.382Z,8.13
2023-04-16T20:33:33.884Z,8.08
2023-04-16T20:38:37.660Z,8.08
2023-04-16T20:43:43.185Z,7.95
2023-04-16T20:48:46.620Z,7.97
2023-04-16T20:53:52.164Z,8.06
2023-04-16T20:58:57.558Z,8.14
2023-04-16T21:04:00.939Z,8.30
2023-04-16T21:09:07.120Z,8.19
2023-04-16T21:14:14.913Z,8.38
2023-04-16T21:19:18.055Z,8.25
2023-04-16T21:24:21.305Z,8.41
2023-04-16T21:29:25.890Z,8.15
2023-04-16T21:34:29.253Z,8.27
2023-04-16T21:39:32.500Z,8.00
2023-04-16T21:44:37.106Z,8.27
2023-04-16T21:49:42.253Z,8.07
2023-04-16T21:54:45.812Z,8.35
2023-04-16T21:59:50.660Z,8.35
2023-04-16T22:04:53.952Z,8.21
2023-04-16T22:09:57.180Z,8.32
2023-04-16T22:15:03.231Z,8.25
2023-04-16T22:20:09.358Z,8.30
2023-04-16T22:25:12.718Z,8.25
2023-04-16T22:30:17.666Z,8.17
2023-04-16T22:35:20.885Z,8.24
2023-04-16T22:40:24.133Z,8.37
2023-04-16T22:45:28.701Z,8.35
2023-04-16T22:50:32.557Z,8.11
2023-04-16T22:55:35.736Z,8.02
2023-04-16T23:00:40.497Z,8.01
2023-04-16T23:05:43.722Z,8.04
2023-04-16T23:10:46.914Z,8.12
2023-04-16T23:15:51.570Z,7.97
2023-04-16T23:20:55.061Z,8.07
2023-04-16T23:25:58.238Z,8.10
2023-04-16T23:31:04.212Z,8.14
2023-04-16T23:36:10.265Z,8.06
2023-04-16T23:41:13.517Z,8.18
2023-04-16T23:46:18.052Z,8.29
2023-04-16T23:51:21.206Z,7.99
2023-04-16T23:56:24.348Z,7.93
